createdAt,value
2023-05-08T00:00:02.579Z,1.6
2023-05-08T00:01:04.926Z,1.4
2023-05-08T00:02:08.188Z,1.7
2023-05-08T00:03:11.464Z,1.6
2023-05-08T00:04:14.754Z,1.6
2023-05-08T00:05:18.126Z,1.7
2023-05-08T00:06:21.318Z,1.7
2023-05-08T00:07:24.684Z,1.8
2023-05-08T00:08:27.926Z,1.5
2023-05-08T00:09:31.343Z,1.8
2023-05-08T00:10:34.504Z,1.7
2023-05-08T00:11:37.795Z,1.6
2023-05-08T00:12:41.087Z,1.6
2023-05-08T00:13:44.368Z,1.9
2023-05-08T00:14:46.686Z,1.9
2023-05-08T00:15:49.966Z,1.6
2023-05-08T00:16:53.255Z,1.8
2023-05-08T00:17:56.559Z,1.7
2023-05-08T00:18:59.901Z,1.8
2023-05-08T00:20:03.133Z,1.8
2023-05-08T00:21:06.453Z,1.9
2023-05-08T00:22:08.841Z,1.6
2023-05-08T00:23:11.112Z,1.7
2023-05-08T00:24:13.423Z,1.7
2023-05-08T00:25:15.661Z,2.09
2023-05-08T00:26:19.027Z,1.6
2023-05-08T00:27:22.320Z,2.2
2023-05-08T00:28:25.605Z,1.8
2023-05-08T00:29:28.838Z,1.7
2023-05-08T00:30:32.152Z,1.6
2023-05-08T00:31:35.419Z,1.9
2023-05-08T00:32:38.718Z,2
2023-05-08T00:33:41.998Z,1.6
2023-05-08T00:34:45.290Z,1.9
2023-05-08T00:35:48.593Z,1.7
2023-05-08T00:36:51.885Z,1.8
2023-05-08T00:37:55.224Z,1.9
2023-05-08T00:38:57.656Z,2
2023-05-08T00:40:00.945Z,1.8
2023-05-08T00:41:04.242Z,1.8
2023-05-08T00:42:07.538Z,1.8
2023-05-08T00:43:10.833Z,1.6
2023-05-08T00:44:14.145Z,1.7
2023-05-08T00:45:17.442Z,1.7
2023-05-08T00:46:19.807Z,1.7
2023-05-08T00:47:22.049Z,1.7
2023-05-08T00:48:25.333Z,1.9
2023-05-08T00:49:27.689Z,1.8
2023-05-08T00:50:30.064Z,2
2023-05-08T00:51:33.279Z,1.9
2023-05-08T00:52:36.551Z,1.8
2023-05-08T00:53:39.885Z,1.6
2023-05-08T00:54:43.109Z,1.8
2023-05-08T00:55:46.410Z,1.6
2023-05-08T00:56:49.853Z,1.6
2023-05-08T00:57:53.011Z,2
2023-05-08T00:58:56.273Z,1.8
2023-05-08T00:59:59.583Z,1.7
2023-05-08T01:01:02.851Z,1.9
2023-05-08T01:02:06.182Z,1.6
2023-05-08T01:03:09.440Z,1.9
2023-05-08T01:04:11.763Z,1.9
2023-05-08T01:05:15.080Z,1.7
2023-05-08T01:06:18.357Z,1.7
2023-05-08T01:07:21.643Z,2
2023-05-08T01:08:24.930Z,2.09
2023-05-08T01:09:28.220Z,1.7
2023-05-08T01:10:31.532Z,1.7
2023-05-08T01:11:33.843Z,1.9
2023-05-08T01:12:36.162Z,1.7
2023-05-08T01:13:39.497Z,1.9
2023-05-08T01:14:42.770Z,1.9
2023-05-08T01:15:46.016Z,1.9
2023-05-08T01:16:49.313Z,1.8
2023-05-08T01:17:52.596Z,1.9
2023-05-08T01:18:55.935Z,1.8
2023-05-08T01:19:59.177Z,1.8
2023-05-08T01:21:02.569Z,1.8
2023-05-08T01:22:05.764Z,1.9
2023-05-08T01:23:09.049Z,1.7
2023-05-08T01:24:12.347Z,1.6
2023-05-08T01:25:15.629Z,1.7
2023-05-08T01:26:17.943Z,1.8
2023-05-08T01:27:21.250Z,1.7
2023-05-08T01:28:24.536Z,1.8
2023-05-08T01:29:27.815Z,1.7
2023-05-08T01:30:31.119Z,1.7
2023-05-08T01:31:34.438Z,1.7
2023-05-08T01:32:37.739Z,2.2
2023-05-08T01:33:40.021Z,2.09
2023-05-08T01:34:42.359Z,1.7
2023-05-08T01:35:45.751Z,1.7
2023-05-08T01:36:48.068Z,2.09
2023-05-08T01:37:51.363Z,1.7
2023-05-08T01:38:55.032Z,1.8
2023-05-08T01:39:58.309Z,1.9
2023-05-08T01:41:01.604Z,1.8
2023-05-08T01:42:04.908Z,1.5
2023-05-08T01:43:08.203Z,1.6
2023-05-08T01:44:11.496Z,1.5
2023-05-08T01:45:14.784Z,1.7
2023-05-08T01:46:18.075Z,1.7
2023-05-08T01:47:21.371Z,1.7
2023-05-08T01:48:24.648Z,1.8
2023-05-08T01:49:27.968Z,1.7
2023-05-08T01:50:30.241Z,1.7
2023-05-08T01:51:33.581Z,1.9
2023-05-08T01:52:36.991Z,1.7
2023-05-08T01:53:40.156Z,2
2023-05-08T01:54:43.468Z,1.9
2023-05-08T01:55:46.726Z,1.7
2023-05-08T01:56:50.045Z,1.6
2023-05-08T01:57:52.327Z,2
2023-05-08T01:58:54.637Z,1.7
2023-05-08T01:59:58.135Z,1.8
2023-05-08T02:01:00.458Z,1.7
2023-05-08T02:02:02.797Z,1.6
2023-05-08T02:03:06.097Z,1.9
2023-05-08T02:04:09.357Z,1.8
2023-05-08T02:05:12.645Z,1.6
2023-05-08T02:06:15.939Z,1.7
2023-05-08T02:07:19.230Z,2.09
2023-05-08T02:08:22.554Z,2
2023-05-08T02:09:25.815Z,1.9
2023-05-08T02:10:29.107Z,1.8
2023-05-08T02:11:32.405Z,1.7
2023-05-08T02:12:35.704Z,1.7
2023-05-08T02:13:39.030Z,1.8
2023-05-08T02:14:42.267Z,1.7
2023-05-08T02:15:44.599Z,1.6
2023-05-08T02:16:47.866Z,2.2
2023-05-08T02:17:51.167Z,1.7
2023-05-08T02:18:54.458Z,1.9
2023-05-08T02:19:57.750Z,1.7
2023-05-08T02:21:01.383Z,1.9
2023-05-08T02:22:04.611Z,1.9
2023-05-08T02:23:06.976Z,1.7
2023-05-08T02:24:09.251Z,1.7
2023-05-08T02:25:11.564Z,1.6
2023-05-08T02:26:13.873Z,1.8
2023-05-08T02:27:17.157Z,2
2023-05-08T02:28:20.501Z,1.6
2023-05-08T02:29:23.748Z,1.6
2023-05-08T02:30:27.040Z,1.6
2023-05-08T02:31:30.390Z,1.6
2023-05-08T02:32:33.625Z,1.6
2023-05-08T02:33:36.918Z,1.6
2023-05-08T02:34:40.190Z,1.7
2023-05-08T02:35:43.488Z,1.7
2023-05-08T02:36:46.874Z,1.7
2023-05-08T02:37:50.081Z,1.6
2023-05-08T02:38:53.390Z,1.8
2023-05-08T02:39:55.670Z,1.8
2023-05-08T02:40:59.012Z,1.6
2023-05-08T02:42:02.305Z,1.7
2023-05-08T02:43:05.574Z,1.7
2023-05-08T02:44:08.834Z,2.3
2023-05-08T02:45:12.142Z,1.6
2023-05-08T02:46:15.428Z,1.7
2023-05-08T02:47:17.754Z,1.7
2023-05-08T02:48:20.050Z,1.7
2023-05-08T02:49:22.364Z,1.7
2023-05-08T02:50:24.685Z,1.5
2023-05-08T02:51:27.949Z,1.6
2023-05-08T02:52:31.346Z,1.7
2023-05-08T02:53:34.597Z,1.6
2023-05-08T02:54:37.922Z,1.6
2023-05-08T02:55:41.423Z,1.8
2023-05-08T02:56:44.521Z,1.6
2023-05-08T02:57:47.879Z,1.6
2023-05-08T02:58:51.004Z,1.5
2023-05-08T02:59:54.404Z,1.5
2023-05-08T03:00:57.574Z,1.5
2023-05-08T03:02:00.917Z,1.6
2023-05-08T03:03:04.306Z,1.7
2023-05-08T03:04:06.507Z,1.6
2023-05-08T03:05:09.828Z,1.7
2023-05-08T03:06:13.063Z,1.5
2023-05-08T03:07:16.434Z,1.6
2023-05-08T03:08:19.654Z,1.5
2023-05-08T03:09:23.018Z,1.5
2023-05-08T03:10:26.231Z,1.5
2023-05-08T03:11:28.682Z,3.6
2023-05-08T03:12:30.878Z,1.4
2023-05-08T03:13:33.184Z,1.5
2023-05-08T03:14:35.587Z,1.4
2023-05-08T03:15:37.770Z,1.5
2023-05-08T03:16:41.132Z,1.6
2023-05-08T03:17:44.364Z,1.5
2023-05-08T03:18:47.747Z,1.5
2023-05-08T03:19:50.991Z,1.8
2023-05-08T03:20:54.288Z,1.6
2023-05-08T03:21:57.606Z,1.4
2023-05-08T03:23:00.891Z,1.4
2023-05-08T03:24:04.199Z,1.4
2023-05-08T03:25:07.442Z,1.6
2023-05-08T03:26:10.797Z,1.5
2023-05-08T03:27:13.994Z,1.6
2023-05-08T03:28:17.274Z,1.5
2023-05-08T03:29:19.718Z,1.7
2023-05-08T03:30:22.888Z,1.6
2023-05-08T03:31:26.271Z,1.6
2023-05-08T03:32:29.496Z,1.6
2023-05-08T03:33:32.832Z,1.7
2023-05-08T03:34:36.079Z,1.4
2023-05-08T03:35:38.443Z,1.4
2023-05-08T03:36:40.738Z,1.7
2023-05-08T03:37:43.033Z,1.5
2023-05-08T03:38:45.394Z,1.8
2023-05-08T03:39:48.616Z,1.5
2023-05-08T03:40:51.923Z,1.6
2023-05-08T03:41:55.175Z,1.5
2023-05-08T03:42:58.914Z,1.4
2023-05-08T03:44:02.168Z,1.7
2023-05-08T03:45:05.509Z,1.5
2023-05-08T03:46:08.795Z,1.7
2023-05-08T03:47:12.121Z,1.5
2023-05-08T03:48:15.331Z,1.6
2023-05-08T03:49:18.613Z,1.5
2023-05-08T03:50:21.909Z,1.9
2023-05-08T03:51:25.212Z,1.9
2023-05-08T03:52:28.652Z,1.6
2023-05-08T03:53:31.921Z,1.5
2023-05-08T03:54:35.288Z,1.6
2023-05-08T03:55:38.499Z,1.6
2023-05-08T03:56:41.805Z,1.5
2023-05-08T03:57:45.070Z,2.2
2023-05-08T03:58:48.380Z,1.3
2023-05-08T03:59:50.700Z,1.5
2023-05-08T04:00:53.036Z,1.5
2023-05-08T04:01:55.310Z,2.09
2023-05-08T04:02:57.618Z,1.3
2023-05-08T04:04:00.925Z,1.5
2023-05-08T04:05:04.197Z,1.4
2023-05-08T04:06:07.489Z,1.2
2023-05-08T04:07:10.818Z,2.5
2023-05-08T04:08:14.138Z,4.6
2023-05-08T04:09:17.378Z,18.1
2023-05-08T04:10:20.705Z,9.7
2023-05-08T04:11:23.974Z,8.8
2023-05-08T04:12:27.354Z,7.3
2023-05-08T04:13:30.546Z,4.69
2023-05-08T04:14:33.836Z,3.5
2023-05-08T04:15:37.127Z,3.7
2023-05-08T04:16:39.433Z,2.9
2023-05-08T04:17:42.802Z,3.6
2023-05-08T04:18:46.028Z,2.2
2023-05-08T04:19:49.302Z,3
2023-05-08T04:20:52.648Z,1.8
2023-05-08T04:21:56.157Z,3.1
2023-05-08T04:22:59.436Z,2
2023-05-08T04:24:01.780Z,2
2023-05-08T04:25:04.128Z,1.7
2023-05-08T04:26:07.365Z,2.4
2023-05-08T04:27:10.753Z,2.6
2023-05-08T04:28:13.084Z,1.9
2023-05-08T04:29:15.298Z,2.4
2023-05-08T04:30:18.552Z,2.2
2023-05-08T04:31:21.851Z,1.6
2023-05-08T04:32:25.163Z,2
2023-05-08T04:33:28.440Z,1.3
2023-05-08T04:34:31.744Z,1.9
2023-05-08T04:35:35.018Z,1.5
2023-05-08T04:36:38.368Z,2
2023-05-08T04:37:41.733Z,2.4
2023-05-08T04:38:44.904Z,2.2
2023-05-08T04:39:48.205Z,1.4
2023-05-08T04:40:51.592Z,1.6
2023-05-08T04:41:54.771Z,2.3
2023-05-08T04:42:57.088Z,1.4
2023-05-08T04:44:00.448Z,1.4
2023-05-08T04:45:03.718Z,2
2023-05-08T04:46:06.991Z,1.5
2023-05-08T04:47:10.232Z,1.6
2023-05-08T04:48:13.555Z,1.8
2023-05-08T04:49:16.845Z,1.6
2023-05-08T04:50:19.142Z,1.3
2023-05-08T04:51:21.511Z,1.7
2023-05-08T04:52:24.862Z,1.8
2023-05-08T04:53:28.115Z,1.3
2023-05-08T04:54:31.326Z,1.4
2023-05-08T04:55:34.697Z,1.5
2023-05-08T04:56:37.898Z,1.3
2023-05-08T04:57:41.242Z,1.4
2023-05-08T04:58:44.521Z,2
2023-05-08T04:59:47.869Z,1.4
2023-05-08T05:00:51.088Z,1.3
2023-05-08T05:01:54.407Z,1.5
2023-05-08T05:02:57.671Z,1.4
2023-05-08T05:04:01.007Z,1.3
2023-05-08T05:05:03.314Z,1.5
2023-05-08T05:06:06.586Z,1.4
2023-05-08T05:07:09.864Z,1.3
2023-05-08T05:08:13.143Z,1.4
2023-05-08T05:09:16.432Z,1.4
2023-05-08T05:10:19.759Z,1.3
2023-05-08T05:11:23.009Z,1.4
2023-05-08T05:12:25.346Z,1.5
2023-05-08T05:13:27.635Z,1.2
2023-05-08T05:14:29.943Z,1.3
2023-05-08T05:15:32.259Z,1.7
2023-05-08T05:16:35.613Z,1.3
2023-05-08T05:17:38.954Z,1.3
2023-05-08T05:18:42.112Z,1.8
2023-05-08T05:19:45.409Z,1.3
2023-05-08T05:20:48.735Z,1.3
2023-05-08T05:21:52.009Z,2.2
2023-05-08T05:22:55.376Z,2.09
2023-05-08T05:23:58.606Z,1.3
2023-05-08T05:25:01.896Z,7.2
2023-05-08T05:26:05.171Z,11
2023-05-08T05:27:08.451Z,8.1
2023-05-08T05:28:11.745Z,3.4
2023-05-08T05:29:14.162Z,4.4
2023-05-08T05:30:17.398Z,3.1
2023-05-08T05:31:20.767Z,4.8
2023-05-08T05:32:24.012Z,3
2023-05-08T05:33:27.334Z,1.2
2023-05-08T05:34:30.519Z,1.3
2023-05-08T05:35:33.855Z,2.2
2023-05-08T05:36:36.140Z,1.1
2023-05-08T05:37:38.448Z,2.3
2023-05-08T05:38:40.780Z,1.2
2023-05-08T05:39:43.148Z,2.2
2023-05-08T05:40:46.357Z,1.2
2023-05-08T05:41:49.645Z,1.3
2023-05-08T05:42:52.925Z,1.4
2023-05-08T05:43:56.662Z,1.9
2023-05-08T05:44:59.982Z,1.2
2023-05-08T05:46:03.167Z,1.7
2023-05-08T05:47:06.469Z,1.1
2023-05-08T05:48:09.894Z,1.1
2023-05-08T05:49:13.049Z,0.9
2023-05-08T05:50:16.404Z,1.7
2023-05-08T05:51:19.631Z,1.2
2023-05-08T05:53:26.262Z,1.4
2023-05-08T05:54:28.515Z,1
2023-05-08T05:55:31.903Z,1.7
2023-05-08T05:56:35.110Z,1.1
2023-05-08T05:57:38.389Z,2.8
2023-05-08T05:58:41.699Z,1.1
2023-05-08T05:59:45.110Z,1.2
2023-05-08T06:00:48.301Z,2.5
2023-05-08T06:01:50.717Z,0.8
2023-05-08T06:02:52.882Z,1.1
2023-05-08T06:03:55.297Z,1.1
2023-05-08T06:04:57.556Z,1.1
2023-05-08T06:06:00.874Z,1
2023-05-08T06:07:04.193Z,0.9
2023-05-08T06:08:07.506Z,1.9
2023-05-08T06:09:10.735Z,0.9
2023-05-08T06:10:14.043Z,1.2
2023-05-08T06:11:17.357Z,1.6
2023-05-08T06:12:20.582Z,6.6
2023-05-08T06:13:23.885Z,10.8
2023-05-08T06:14:27.228Z,4.69
2023-05-08T06:15:30.471Z,3.7
2023-05-08T06:16:33.742Z,4.3
2023-05-08T06:17:37.030Z,3
2023-05-08T06:18:39.342Z,3.5
2023-05-08T06:19:42.620Z,1.4
2023-05-08T06:20:45.906Z,1.1
2023-05-08T06:21:49.200Z,1.7
2023-05-08T06:22:52.496Z,2.4
2023-05-08T06:23:55.771Z,1.8
2023-05-08T06:24:59.085Z,1
2023-05-08T06:26:01.509Z,0.9
2023-05-08T06:27:03.722Z,1.2
2023-05-08T06:28:06.050Z,1.6
2023-05-08T06:29:08.329Z,1.1
2023-05-08T06:30:11.636Z,2.2
2023-05-08T06:31:14.904Z,1.2
2023-05-08T06:32:18.297Z,1.8
2023-05-08T06:33:21.477Z,1.1
2023-05-08T06:34:24.792Z,2
2023-05-08T06:35:28.132Z,3
2023-05-08T06:36:31.385Z,2.7
2023-05-08T06:37:34.732Z,1.1
2023-05-08T06:38:37.943Z,1.3
2023-05-08T06:39:41.306Z,2.09
2023-05-08T06:40:44.541Z,6.6
2023-05-08T06:41:47.826Z,11.1
2023-05-08T06:42:50.141Z,19
2023-05-08T06:43:53.402Z,24.3
2023-05-08T06:44:57.034Z,28.5
2023-05-08T06:46:00.330Z,25.4
2023-05-08T06:47:02.698Z,31.4
2023-05-08T06:48:05.958Z,23.8
2023-05-08T06:49:09.297Z,23.4
2023-05-08T06:50:11.588Z,20.5
2023-05-08T06:51:13.904Z,11.6
2023-05-08T06:52:16.219Z,15.1
2023-05-08T06:53:18.520Z,14.6
2023-05-08T06:54:21.767Z,14.6
2023-05-08T06:55:25.057Z,13.5
2023-05-08T06:56:28.357Z,10.6
2023-05-08T06:57:31.682Z,16.2
2023-05-08T06:58:34.999Z,14.5
2023-05-08T06:59:38.220Z,12.4
2023-05-08T07:00:41.521Z,9.2
2023-05-08T07:01:44.814Z,9.3
2023-05-08T07:02:48.105Z,11.3
2023-05-08T07:03:51.400Z,7.9
2023-05-08T07:04:54.686Z,8
2023-05-08T07:05:57.981Z,7.1
2023-05-08T07:07:00.325Z,10
2023-05-08T07:08:03.622Z,6.5
2023-05-08T07:09:06.869Z,5.6
2023-05-08T07:10:10.151Z,7.3
2023-05-08T07:11:13.466Z,6.3
2023-05-08T07:12:16.751Z,5.1
2023-05-08T07:13:20.026Z,8.1
2023-05-08T07:14:22.408Z,5.5
2023-05-08T07:15:24.799Z,5.4
2023-05-08T07:16:28.002Z,7.6
2023-05-08T07:17:30.257Z,5.5
2023-05-08T07:18:32.608Z,6.8
2023-05-08T07:19:35.854Z,5.4
2023-05-08T07:20:39.227Z,7.1
2023-05-08T07:21:42.431Z,9.7
2023-05-08T07:22:45.730Z,5.8
2023-05-08T07:23:49.042Z,5.7
2023-05-08T07:24:52.335Z,5.9
2023-05-08T07:25:55.610Z,3.6
2023-05-08T07:26:58.894Z,6.3
2023-05-08T07:28:02.221Z,7
2023-05-08T07:29:05.491Z,4.9
2023-05-08T07:30:08.798Z,4.8
2023-05-08T07:31:12.075Z,3.7
2023-05-08T07:32:14.462Z,4.8
2023-05-08T07:33:17.671Z,6.6
2023-05-08T07:34:20.967Z,4.69
2023-05-08T07:35:24.314Z,3.6
2023-05-08T07:36:27.560Z,7.4
2023-05-08T07:37:30.889Z,4.69
2023-05-08T07:38:34.137Z,5.2
2023-05-08T07:39:36.491Z,3.9
2023-05-08T07:40:38.770Z,3.4
2023-05-08T07:41:41.071Z,6.2
2023-05-08T07:42:43.395Z,5
2023-05-08T07:43:46.655Z,4
2023-05-08T07:44:50.040Z,2.8
2023-05-08T07:45:53.244Z,2.8
2023-05-08T07:46:56.553Z,3.2
2023-05-08T07:47:59.871Z,4.1
2023-05-08T07:49:03.474Z,2.7
2023-05-08T07:50:06.746Z,4.9
2023-05-08T07:51:10.042Z,4.4
2023-05-08T07:52:13.336Z,2.8
2023-05-08T07:53:16.636Z,4.19
2023-05-08T07:54:19.915Z,3.4
2023-05-08T07:55:23.267Z,3.3
2023-05-08T07:56:25.514Z,3.3
2023-05-08T07:57:28.788Z,3.9
2023-05-08T07:58:32.208Z,4.1
2023-05-08T07:59:35.366Z,2.7
2023-05-08T08:00:38.670Z,3.2
2023-05-08T08:01:41.943Z,1.9
2023-05-08T08:02:45.332Z,3.1
2023-05-08T08:03:47.610Z,2.9
2023-05-08T08:04:49.905Z,2.3
2023-05-08T08:05:52.210Z,2.3
2023-05-08T08:06:54.496Z,2.6
2023-05-08T08:07:57.887Z,2.6
2023-05-08T08:09:01.178Z,2.7
2023-05-08T08:10:04.456Z,2.4
2023-05-08T08:11:07.887Z,3.6
2023-05-08T08:12:11.195Z,1.9
2023-05-08T08:13:14.354Z,2.4
2023-05-08T08:14:17.638Z,2
2023-05-08T08:15:20.929Z,2.6
2023-05-08T08:16:24.226Z,2.4
2023-05-08T08:17:27.511Z,1.7
2023-05-08T08:18:30.796Z,2.09
2023-05-08T08:19:34.095Z,2.4
2023-05-08T08:20:36.411Z,1.9
2023-05-08T08:21:39.688Z,1.9
2023-05-08T08:22:42.975Z,1.9
2023-05-08T08:23:46.282Z,1.6
2023-05-08T08:24:49.579Z,1.9
2023-05-08T08:25:52.852Z,2.3
2023-05-08T08:26:56.255Z,2.4
2023-05-08T08:27:58.493Z,2
2023-05-08T08:29:00.774Z,2.5
2023-05-08T08:30:03.099Z,2.3
2023-05-08T08:31:05.415Z,2.6
2023-05-08T08:32:08.695Z,1.6
2023-05-08T08:33:11.982Z,3.5
2023-05-08T08:34:15.275Z,2.7
2023-05-08T08:35:18.619Z,1.4
2023-05-08T08:36:21.887Z,1.4
2023-05-08T08:37:25.130Z,3.9
2023-05-08T08:38:28.579Z,2.6
2023-05-08T08:39:31.721Z,1.7
2023-05-08T08:40:35.012Z,1.9
2023-05-08T08:41:38.337Z,1.8
2023-05-08T08:42:41.616Z,1.6
2023-05-08T08:43:44.891Z,2.5
2023-05-08T08:44:47.190Z,2.09
2023-05-08T08:45:50.513Z,1.7
2023-05-08T08:46:53.782Z,1.7
2023-05-08T08:47:57.111Z,2.3
2023-05-08T08:49:00.777Z,3.2
2023-05-08T08:50:04.119Z,1.5
2023-05-08T08:51:07.388Z,2.3
2023-05-08T08:52:09.673Z,1.6
2023-05-08T08:53:11.961Z,1.3
2023-05-08T08:54:15.216Z,1.7
2023-05-08T08:55:18.507Z,1.5
2023-05-08T08:56:21.799Z,1.8
2023-05-08T08:57:25.263Z,1.5
2023-05-08T08:58:28.444Z,1.4
2023-05-08T08:59:31.739Z,2.2
2023-05-08T09:00:35.016Z,1.4
2023-05-08T09:01:38.431Z,1.5
2023-05-08T09:02:41.697Z,2.3
2023-05-08T09:03:44.990Z,1.9
2023-05-08T09:04:48.285Z,2.09
2023-05-08T09:05:51.567Z,1.6
2023-05-08T09:06:53.822Z,1.3
2023-05-08T09:07:57.128Z,1.5
2023-05-08T09:09:00.318Z,1.6
2023-05-08T09:10:04.092Z,1.8
2023-05-08T09:11:07.232Z,1.8
2023-05-08T09:12:10.534Z,1.5
2023-05-08T09:13:13.772Z,1.4
2023-05-08T09:14:16.212Z,1.2
2023-05-08T09:15:18.558Z,1.4
2023-05-08T09:16:20.895Z,1.3
2023-05-08T09:17:23.130Z,1.8
2023-05-08T09:18:26.388Z,2.2
2023-05-08T09:19:29.592Z,1.4
2023-05-08T09:20:33.020Z,2.3
2023-05-08T09:21:36.272Z,1.3
2023-05-08T09:22:39.557Z,1.3
2023-05-08T09:23:42.844Z,1.6
2023-05-08T09:24:46.061Z,1.3
2023-05-08T09:25:49.406Z,1.4
2023-05-08T09:26:52.747Z,1.4
2023-05-08T09:27:56.032Z,1.4
2023-05-08T09:28:59.225Z,1.2
2023-05-08T09:30:02.538Z,1.7
2023-05-08T09:31:04.842Z,1.3
2023-05-08T09:32:08.129Z,1.3
2023-05-08T09:33:11.420Z,1.3
2023-05-08T09:34:14.725Z,1.3
2023-05-08T09:35:18.001Z,2
2023-05-08T09:36:21.290Z,1.4
2023-05-08T09:37:24.683Z,1.2
2023-05-08T09:38:26.898Z,1.2
2023-05-08T09:39:29.212Z,1.5
2023-05-08T09:40:31.540Z,1.2
2023-05-08T09:41:33.866Z,1.2
2023-05-08T09:42:37.137Z,1.5
2023-05-08T09:43:40.470Z,1.3
2023-05-08T09:44:42.776Z,1.7
2023-05-08T09:45:45.139Z,1.2
2023-05-08T09:46:48.304Z,1.3
2023-05-08T09:47:51.616Z,1.3
2023-05-08T09:48:54.910Z,1.3
2023-05-08T09:49:58.298Z,1.2
2023-05-08T09:51:01.485Z,1.4
2023-05-08T09:52:04.780Z,1.2
2023-05-08T09:53:08.092Z,1.3
2023-05-08T09:54:11.368Z,2.4
2023-05-08T09:55:14.762Z,1.8
2023-05-08T09:56:17.953Z,1.2
2023-05-08T09:57:21.261Z,2.2
2023-05-08T09:58:24.546Z,1.3
2023-05-08T09:59:26.867Z,1.4
2023-05-08T10:00:30.219Z,1.1
2023-05-08T10:01:33.440Z,1.1
2023-05-08T10:02:36.779Z,1.1
2023-05-08T10:03:40.015Z,1.2
2023-05-08T10:04:43.405Z,1.3
2023-05-08T10:05:46.659Z,1.1
2023-05-08T10:06:48.903Z,1.3
2023-05-08T10:07:51.214Z,1.2
2023-05-08T10:08:53.537Z,2.8
2023-05-08T10:09:55.924Z,3.4
2023-05-08T10:10:59.233Z,1.3
2023-05-08T10:12:02.522Z,1.2
2023-05-08T10:13:05.867Z,2.4
2023-05-08T10:14:08.994Z,1
2023-05-08T10:15:12.322Z,1.7
2023-05-08T10:16:15.601Z,1.1
2023-05-08T10:17:18.886Z,1.4
2023-05-08T10:18:21.311Z,3.1
2023-05-08T10:19:24.478Z,1.1
2023-05-08T10:20:27.796Z,1
2023-05-08T10:21:31.088Z,1.9
2023-05-08T10:22:34.452Z,10.3
2023-05-08T10:23:37.759Z,8.1
2023-05-08T10:24:41.073Z,13.2
2023-05-08T10:25:44.446Z,5.8
2023-05-08T10:27:50.939Z,3
2023-05-08T10:28:54.198Z,4.1
2023-05-08T10:29:57.458Z,4.19
2023-05-08T10:31:00.935Z,4.5
2023-05-08T10:32:03.030Z,2.09
2023-05-08T10:33:05.385Z,2
2023-05-08T10:34:07.653Z,2.2
2023-05-08T10:35:09.938Z,2.2
2023-05-08T10:36:13.295Z,4.6
2023-05-08T10:37:16.554Z,1.9
2023-05-08T10:38:19.930Z,1.8
2023-05-08T10:39:23.234Z,3
2023-05-08T10:40:26.545Z,3.2
2023-05-08T10:41:29.697Z,3.2
2023-05-08T10:42:33.039Z,1.2
2023-05-08T10:43:36.269Z,1.2
2023-05-08T10:44:39.607Z,1.7
2023-05-08T10:45:42.859Z,2.5
2023-05-08T10:46:46.166Z,2.09
2023-05-08T10:47:49.445Z,1.3
2023-05-08T10:48:51.847Z,1.4
2023-05-08T10:49:55.062Z,1.3
2023-05-08T10:50:58.713Z,1.7
2023-05-08T10:52:02.022Z,1.7
2023-05-08T10:53:05.289Z,1.2
2023-05-08T10:54:08.705Z,1.1
2023-05-08T10:55:11.896Z,2.7
2023-05-08T10:56:14.289Z,1.7
2023-05-08T10:57:16.519Z,2.3
2023-05-08T10:58:18.875Z,1.5
2023-05-08T10:59:21.126Z,1.9
2023-05-08T11:00:24.403Z,1.3
2023-05-08T11:01:27.771Z,2.3
2023-05-08T11:02:31.000Z,1.6
2023-05-08T11:03:34.360Z,1.3
2023-05-08T11:04:37.647Z,1
2023-05-08T11:05:40.879Z,1.3
2023-05-08T11:06:44.173Z,1.9
2023-05-08T11:07:47.456Z,1
2023-05-08T11:08:50.762Z,1.5
2023-05-08T11:09:54.059Z,1.3
2023-05-08T11:10:57.325Z,1.7
2023-05-08T11:12:00.721Z,1.1
2023-05-08T11:13:02.934Z,2.2
2023-05-08T11:14:06.241Z,1.1
2023-05-08T11:15:09.510Z,1.1
2023-05-08T11:16:12.816Z,1
2023-05-08T11:17:16.181Z,1
2023-05-08T11:18:19.468Z,3.1
2023-05-08T11:19:22.685Z,3.5
2023-05-08T11:20:25.067Z,14.2
2023-05-08T11:21:27.309Z,11.8
2023-05-08T11:22:30.641Z,2.9
2023-05-08T11:34:06.875Z,5.1
2023-05-08T11:35:09.128Z,6.8
2023-05-08T11:36:12.446Z,4.1
2023-05-08T11:37:15.711Z,5.8
2023-05-08T11:38:19.019Z,4.9
2023-05-08T11:39:22.303Z,4.3
2023-05-08T11:40:25.571Z,4.4
2023-05-08T11:42:32.223Z,2.09
2023-05-08T11:43:34.542Z,3.7
2023-05-08T11:44:36.842Z,3.5
2023-05-08T11:45:40.067Z,3.3
2023-05-08T11:46:43.458Z,2.9
2023-05-08T11:47:46.769Z,3.2
2023-05-08T11:48:49.990Z,1.9
2023-05-08T11:49:53.426Z,2.7
2023-05-08T11:50:56.560Z,3.8
2023-05-08T11:51:59.950Z,3.2
2023-05-08T11:53:03.118Z,1.4
2023-05-08T11:54:05.453Z,2.2
2023-05-08T11:55:07.761Z,1.7
2023-05-08T11:56:11.074Z,2
2023-05-08T11:57:14.385Z,1.8
2023-05-08T11:58:17.632Z,1.7
2023-05-08T11:59:20.909Z,2.3
2023-05-08T12:00:24.216Z,2.7
2023-05-08T12:01:27.510Z,2.3
2023-05-08T12:02:30.792Z,2.3
2023-05-08T12:03:34.080Z,1.8
2023-05-08T12:04:36.447Z,1.6
2023-05-08T12:05:38.697Z,2
2023-05-08T12:06:41.019Z,2.4
2023-05-08T12:07:44.295Z,2
2023-05-08T12:08:47.655Z,1.6
2023-05-08T12:09:50.884Z,2.09
2023-05-08T12:10:54.185Z,2.5
2023-05-08T12:11:57.502Z,2.3
2023-05-08T12:13:00.864Z,1.1
2023-05-08T12:14:04.049Z,1.8
2023-05-08T12:15:07.447Z,1.4
2023-05-08T12:16:10.621Z,0.7
2023-05-08T12:17:13.917Z,1.4
2023-05-08T12:18:17.217Z,1.6
2023-05-08T12:19:20.526Z,1.6
2023-05-08T12:20:22.936Z,1.4
2023-05-08T12:21:26.112Z,1.9
2023-05-08T12:22:29.476Z,2.2
2023-05-08T12:23:32.741Z,0.8
2023-05-08T12:24:36.014Z,1.7
2023-05-08T12:25:39.364Z,5
2023-05-08T12:26:41.659Z,1.7
2023-05-08T12:27:43.983Z,8.1
2023-05-08T12:28:47.341Z,11.1
2023-05-08T12:29:50.544Z,3.9
2023-05-08T12:30:53.776Z,4.5
2023-05-08T12:31:57.070Z,2.8
2023-05-08T12:33:00.373Z,5.8
2023-05-08T12:34:03.643Z,3.9
2023-05-08T12:35:06.941Z,3
2023-05-08T12:36:10.219Z,2.5
2023-05-08T12:37:13.535Z,2.4
2023-05-08T12:38:16.834Z,2.4
2023-05-08T12:39:20.205Z,3.8
2023-05-08T12:40:23.425Z,1.8
2023-05-08T12:41:25.870Z,3.6
2023-05-08T12:42:29.071Z,1.5
2023-05-08T12:43:32.427Z,0.7
2023-05-08T12:44:35.701Z,0.7
2023-05-08T12:45:38.888Z,1.7
2023-05-08T12:46:42.233Z,1.4
2023-05-08T12:47:44.501Z,2.5
2023-05-08T12:48:46.823Z,2.5
2023-05-08T12:49:50.078Z,1.2
2023-05-08T12:50:53.493Z,1.2
2023-05-08T12:51:56.688Z,0.6
2023-05-08T12:52:59.967Z,1.5
2023-05-08T12:54:03.461Z,7.9
2023-05-08T12:55:06.529Z,4.3
2023-05-08T12:56:09.959Z,2.09
2023-05-08T12:57:13.195Z,2.9
2023-05-08T12:58:16.457Z,1.3
2023-05-08T12:59:19.776Z,1.1
2023-05-08T13:00:23.057Z,1.3
2023-05-08T13:01:26.389Z,3.1
2023-05-08T13:02:28.715Z,0.5
2023-05-08T13:03:31.903Z,3.3
2023-05-08T13:04:35.221Z,1.2
2023-05-08T13:05:38.464Z,2
2023-05-08T13:06:41.771Z,1
2023-05-08T13:07:45.118Z,1.5
2023-05-08T13:08:47.400Z,2.09
2023-05-08T13:09:49.740Z,1.5
2023-05-08T13:10:53.071Z,0.8
2023-05-08T13:11:56.338Z,9.39
2023-05-08T13:12:59.577Z,1.6
2023-05-08T13:14:02.861Z,4.19
2023-05-08T13:15:06.255Z,11.9
2023-05-08T13:16:09.445Z,5.1
2023-05-08T13:17:12.720Z,8
2023-05-08T13:18:16.017Z,4.9
2023-05-08T13:19:19.323Z,4.69
2023-05-08T13:20:22.669Z,5.3
2023-05-08T13:21:25.926Z,4.8
2023-05-08T13:22:29.189Z,3
2023-05-08T13:23:31.734Z,2.9
2023-05-08T13:24:34.783Z,3
2023-05-08T13:25:38.073Z,3.8
2023-05-08T13:26:41.376Z,14.3
2023-05-08T13:27:44.703Z,15.2
2023-05-08T13:28:47.962Z,6.6
2023-05-08T13:29:50.285Z,9.1
2023-05-08T13:30:52.613Z,3.2
2023-05-08T13:31:54.985Z,4.4
2023-05-08T13:32:58.178Z,8.39
2023-05-08T13:34:01.553Z,3.3
2023-05-08T13:35:04.840Z,4.8
2023-05-08T13:36:08.184Z,4.8
2023-05-08T13:37:11.362Z,3.2
2023-05-08T13:38:14.665Z,5.5
2023-05-08T13:39:17.925Z,1.6
2023-05-08T13:40:21.317Z,6.3
2023-05-08T13:41:24.593Z,4
2023-05-08T13:42:27.849Z,5.3
2023-05-08T13:43:31.112Z,3.3
2023-05-08T13:44:34.392Z,9.6
2023-05-08T13:45:36.806Z,5.1
2023-05-08T13:46:40.034Z,4.4
2023-05-08T13:47:43.280Z,9.3
2023-05-08T13:48:46.575Z,12.5
2023-05-08T13:49:48.896Z,11
2023-05-08T13:50:52.183Z,5
2023-05-08T13:51:54.502Z,8.8
2023-05-08T13:52:56.841Z,5.6
2023-05-08T13:54:00.126Z,3.7
2023-05-08T13:55:03.385Z,3.6
2023-05-08T13:56:06.714Z,2.09
2023-05-08T13:57:10.071Z,7.2
2023-05-08T13:58:13.271Z,4.69
2023-05-08T13:59:16.562Z,5.6
2023-05-08T14:00:19.847Z,2.2
2023-05-08T14:01:23.236Z,3
2023-05-08T14:02:26.435Z,2.5
2023-05-08T14:03:29.836Z,3.4
2023-05-08T14:04:33.015Z,2.2
2023-05-08T14:05:36.334Z,1.9
2023-05-08T14:06:38.611Z,2
2023-05-08T14:07:41.988Z,1.7
2023-05-08T14:08:45.398Z,1.8
2023-05-08T14:09:48.703Z,2.2
2023-05-08T14:10:51.932Z,16.1
2023-05-08T14:11:55.233Z,10.8
2023-05-08T14:12:57.536Z,4.9
2023-05-08T14:14:00.780Z,3.2
2023-05-08T14:15:03.100Z,2.6
2023-05-08T14:16:06.466Z,1.1
2023-05-08T14:17:09.663Z,1.8
2023-05-08T14:18:12.876Z,2.6
2023-05-08T14:19:16.225Z,1.5
2023-05-08T14:20:19.463Z,0.5
2023-05-08T14:21:22.787Z,1.7
2023-05-08T14:22:26.149Z,1.3
2023-05-08T14:23:29.339Z,0.4
2023-05-08T14:24:32.621Z,1.5
2023-05-08T14:25:36.099Z,1.1
2023-05-08T14:26:39.277Z,0.6
2023-05-08T14:27:42.545Z,0.6
2023-05-08T14:28:44.857Z,2.7
2023-05-08T14:29:48.246Z,0.5
2023-05-08T14:30:51.578Z,1.2
2023-05-08T14:31:54.856Z,1.1
2023-05-08T14:32:58.010Z,0.8
2023-05-08T14:34:00.392Z,2.09
2023-05-08T14:35:03.060Z,0.6
2023-05-08T14:36:06.387Z,1.1
2023-05-08T14:37:09.611Z,0.4
2023-05-08T14:38:12.918Z,0.2
2023-05-08T14:39:16.222Z,0.6
2023-05-08T14:40:19.534Z,0.6
2023-05-08T14:41:22.800Z,0.3
2023-05-08T14:42:26.086Z,0.2
2023-05-08T14:43:29.284Z,0.6